createdAt,value
2022-09-05T00:00:29.683Z,61.29
2022-09-05T00:01:30.031Z,61.09
2022-09-05T00:02:29.882Z,60.61
2022-09-05T00:03:30.325Z,61.00
2022-09-05T00:04:29.938Z,60.71
2022-09-05T00:05:29.841Z,60.71
2022-09-05T00:06:30.184Z,61.19
2022-09-05T00:07:37.505Z,60.71
2022-09-05T00:08:29.941Z,60.61
2022-09-05T00:09:30.503Z,61.09
2022-09-05T00:10:36.156Z,60.80
2022-09-05T00:11:43.295Z,61.19
2022-09-05T00:12:30.069Z,61.09
2022-09-05T00:13:30.348Z,61.29
2022-09-05T00:15:14.335Z,61.29
2022-09-05T00:15:30.157Z,61.38
2022-09-05T00:21:27.102Z,61.00
2022-09-05T00:24:17.472Z,61.29
2022-09-05T00:24:19.772Z,61.29
2022-09-05T00:24:26.947Z,61.29
2022-09-05T00:24:27.645Z,61.38
2022-09-05T00:24:27.645Z,61.00
2022-09-05T00:24:50.104Z,61.09
2022-09-05T00:25:32.082Z,61.19
2022-09-05T00:27:30.542Z,61.29
2022-09-05T00:28:30.877Z,61.29
2022-09-05T00:31:05.530Z,61.29
2022-09-05T00:31:51.735Z,61.38
2022-09-05T00:31:54.778Z,61.29
2022-09-05T00:33:31.071Z,61.00
2022-09-05T00:34:47.219Z,61.19
2022-09-05T00:35:30.798Z,61.58
2022-09-05T00:36:30.930Z,61.68
2022-09-05T00:37:30.862Z,61.29
2022-09-05T00:39:30.981Z,61.29
2022-09-05T00:40:31.008Z,61.09
2022-09-05T00:41:34.424Z,61.29
2022-09-05T00:42:31.021Z,61.25
2022-09-05T00:43:31.057Z,61.19
2022-09-05T00:44:31.086Z,61.29
2022-09-05T00:45:31.120Z,61.19
2022-09-05T00:46:32.199Z,61.25
2022-09-05T00:47:31.179Z,61.19
2022-09-05T00:48:31.520Z,61.00
2022-09-05T00:49:32.000Z,60.90
2022-09-05T00:52:31.439Z,60.97
2022-09-05T00:53:31.371Z,61.74
2022-09-05T00:54:40.478Z,61.09
2022-09-05T00:55:31.441Z,61.68
2022-09-05T00:57:31.523Z,61.68
2022-09-05T00:58:34.057Z,61.68
2022-09-05T00:59:31.561Z,61.77
2022-09-05T01:00:31.608Z,61.19
2022-09-05T01:01:32.075Z,61.58
2022-09-05T01:02:33.343Z,61.58
2022-09-05T01:03:31.692Z,61.74
2022-09-05T01:04:31.720Z,61.55
2022-09-05T01:05:31.759Z,61.68
2022-09-05T01:06:31.785Z,61.74
2022-09-05T01:07:32.315Z,61.74
2022-09-05T01:08:31.848Z,61.74
2022-09-05T01:09:31.892Z,61.55
2022-09-05T01:10:31.913Z,61.84
2022-09-05T01:11:31.945Z,61.84
2022-09-05T01:12:31.975Z,61.45
2022-09-05T01:13:32.406Z,61.38
2022-09-05T01:14:32.044Z,61.55
2022-09-05T01:15:32.797Z,61.55
2022-09-05T01:16:32.129Z,61.45
2022-09-05T01:17:32.883Z,61.55
2022-09-05T01:18:32.166Z,61.74
2022-09-05T01:19:32.195Z,61.65
2022-09-05T01:20:34.433Z,61.45
2022-09-05T01:21:32.260Z,61.65
2022-09-05T01:22:32.299Z,61.55
2022-09-05T01:23:32.326Z,61.55
2022-09-05T01:24:32.355Z,61.55
2022-09-05T01:26:32.422Z,61.65
2022-09-05T01:29:16.373Z,61.84
2022-09-05T01:29:32.522Z,61.55
2022-09-05T01:31:32.698Z,61.74
2022-09-05T01:32:32.608Z,61.55
2022-09-05T01:33:32.645Z,61.77
2022-09-05T01:34:32.929Z,61.74
2022-09-05T01:35:32.711Z,61.74
2022-09-05T01:36:32.731Z,61.84
2022-09-05T01:37:34.208Z,61.65
2022-09-05T01:38:32.796Z,61.65
2022-09-05T01:40:12.243Z,61.65
2022-09-05T01:40:33.247Z,61.84
2022-09-05T01:41:32.949Z,61.74
2022-09-05T01:42:32.925Z,61.74
2022-09-05T01:43:32.958Z,61.65
2022-09-05T01:44:32.987Z,61.65
2022-09-05T01:45:39.348Z,61.65
2022-09-05T01:46:33.182Z,61.74
2022-09-05T01:47:33.395Z,61.74
2022-09-05T01:48:33.127Z,61.84
2022-09-05T01:49:33.151Z,61.94
2022-09-05T01:50:33.179Z,61.84
2022-09-05T01:53:33.273Z,62.23
2022-09-05T01:54:33.607Z,62.13
2022-09-05T01:55:33.342Z,62.13
2022-09-05T01:56:33.366Z,62.04
2022-09-05T01:57:33.399Z,61.94
2022-09-05T01:58:33.437Z,61.74
2022-09-05T02:00:33.496Z,61.84
2022-09-05T02:01:33.963Z,61.84
2022-09-05T02:02:33.692Z,61.84
2022-09-05T02:03:33.590Z,61.84
2022-09-05T02:04:33.627Z,61.84
2022-09-05T02:06:33.688Z,61.94
2022-09-05T02:07:34.473Z,61.84
2022-09-05T02:09:34.079Z,62.04
2022-09-05T02:10:33.816Z,62.04
2022-09-05T02:11:35.794Z,61.94
2022-09-05T02:12:33.878Z,62.32
2022-09-05T02:13:33.909Z,61.94
2022-09-05T02:14:34.687Z,62.13
2022-09-05T02:15:34.032Z,62.13
2022-09-05T02:16:34.402Z,62.13
2022-09-05T02:18:34.074Z,62.23
2022-09-05T02:19:34.098Z,62.23
2022-09-05T02:20:34.128Z,62.13
2022-09-05T02:21:55.674Z,62.23
2022-09-05T02:24:34.271Z,62.23
2022-09-05T02:26:02.611Z,62.32
2022-09-05T02:26:34.319Z,62.32
2022-09-05T02:28:03.886Z,62.23
2022-09-05T02:28:34.414Z,62.23
2022-09-05T02:29:34.417Z,62.23
2022-09-05T02:30:34.507Z,62.13
2022-09-05T02:31:34.485Z,62.32
2022-09-05T02:32:34.804Z,62.32
2022-09-05T02:33:34.548Z,61.84
2022-09-05T02:34:34.870Z,62.13
2022-09-05T02:36:34.634Z,61.84
2022-09-05T02:38:45.500Z,62.04
2022-09-05T02:40:44.200Z,62.13
2022-09-05T02:45:02.722Z,61.84
2022-09-05T02:45:07.734Z,61.84
2022-09-05T02:45:10.981Z,62.04
2022-09-05T02:45:14.816Z,62.04
2022-09-05T02:45:15.038Z,62.13
2022-09-05T02:45:20.599Z,62.04
2022-09-05T02:45:35.549Z,62.13
2022-09-05T02:46:35.090Z,62.13
2022-09-05T02:47:34.995Z,62.13
2022-09-05T02:48:35.021Z,62.04
2022-09-05T02:51:04.150Z,62.04
2022-09-05T02:57:15.714Z,62.32
2022-09-05T02:57:23.086Z,62.32
2022-09-05T02:57:28.443Z,62.32
2022-09-05T02:57:34.567Z,62.32
2022-09-05T02:57:42.128Z,62.23
2022-09-05T02:58:05.650Z,62.13
2022-09-05T02:58:59.328Z,62.42
2022-09-05T02:59:36.563Z,62.13
2022-09-05T03:00:35.390Z,62.04
2022-09-05T03:01:35.531Z,61.94
2022-09-05T03:02:35.628Z,61.94
2022-09-05T03:03:35.648Z,61.94
2022-09-05T03:04:35.816Z,62.04
2022-09-05T03:05:38.580Z,61.94
2022-09-05T03:06:35.600Z,62.04
2022-09-05T03:07:35.612Z,61.74
2022-09-05T03:08:35.653Z,62.04
2022-09-05T03:09:35.677Z,61.84
2022-09-05T03:11:36.039Z,61.84
2022-09-05T03:12:35.872Z,61.94
2022-09-05T03:13:35.808Z,61.94
2022-09-05T03:14:35.854Z,62.04
2022-09-05T03:15:35.875Z,62.04
2022-09-05T03:16:44.847Z,62.13
2022-09-05T03:18:36.506Z,61.84
2022-09-05T03:19:36.003Z,62.42
2022-09-05T03:20:36.041Z,62.32
2022-09-05T03:21:36.071Z,62.32
2022-09-05T03:22:37.173Z,62.23
2022-09-05T03:23:36.439Z,61.74
2022-09-05T03:24:36.173Z,62.13
2022-09-05T03:25:36.210Z,62.13
2022-09-05T03:26:36.243Z,61.94
2022-09-05T03:27:36.281Z,62.04
2022-09-05T03:28:36.309Z,62.13
2022-09-05T03:29:36.344Z,61.94
2022-09-05T03:30:36.741Z,61.84
2022-09-05T03:31:36.411Z,62.04
2022-09-05T03:32:41.986Z,62.04
2022-09-05T03:33:36.479Z,61.94
2022-09-05T03:34:36.508Z,61.94
2022-09-05T03:36:36.575Z,61.94
2022-09-05T03:37:36.909Z,62.04
2022-09-05T03:39:36.736Z,62.04
2022-09-05T03:40:36.735Z,62.04
2022-09-05T03:41:40.593Z,62.04
2022-09-05T03:42:36.777Z,61.84
2022-09-05T03:43:36.810Z,61.94
2022-09-05T03:44:37.151Z,62.13
2022-09-05T03:45:37.742Z,61.94
2022-09-05T03:48:37.108Z,62.04
2022-09-05T03:57:06.536Z,62.04
2022-09-05T03:57:08.083Z,62.04
2022-09-05T03:57:11.959Z,62.04
2022-09-05T03:57:11.962Z,61.94
2022-09-05T03:57:15.048Z,61.94
2022-09-05T03:57:23.884Z,62.04
2022-09-05T03:57:28.307Z,62.04
2022-09-05T03:57:42.262Z,62.04
2022-09-05T03:58:56.021Z,62.04
2022-09-05T03:59:37.912Z,62.04
2022-09-05T04:00:37.388Z,61.94
2022-09-05T04:04:22.684Z,61.94
2022-09-05T04:07:04.991Z,62.04
2022-09-05T04:08:10.952Z,62.13
2022-09-05T04:08:16.872Z,61.94
2022-09-05T04:08:17.043Z,61.84
2022-09-05T04:08:19.031Z,61.84
2022-09-05T04:08:26.186Z,62.04
2022-09-05T04:08:42.754Z,61.84
2022-09-05T04:09:50.475Z,61.94
2022-09-05T04:10:37.829Z,62.04
2022-09-05T04:11:37.765Z,61.94
2022-09-05T04:12:38.399Z,61.74
2022-09-05T04:13:37.829Z,61.74
2022-09-05T04:14:38.636Z,62.04
2022-09-05T04:15:37.903Z,61.84
2022-09-05T04:17:38.080Z,61.94
2022-09-05T04:18:38.002Z,61.74
2022-09-05T04:19:38.288Z,62.04
2022-09-05T04:20:40.454Z,61.84
2022-09-05T04:21:38.112Z,62.13
2022-09-05T04:22:38.152Z,62.13
2022-09-05T04:23:38.183Z,61.94
2022-09-05T04:24:39.637Z,61.94
2022-09-05T04:26:38.277Z,61.84
2022-09-05T04:27:38.612Z,61.84
2022-09-05T04:28:38.349Z,61.84
2022-09-05T04:29:38.420Z,61.84
2022-09-05T04:30:40.418Z,61.84
2022-09-05T04:31:38.499Z,61.94
2022-09-05T04:32:38.488Z,62.04
2022-09-05T04:33:38.523Z,61.94
2022-09-05T04:34:38.798Z,61.94
2022-09-05T04:35:38.582Z,61.74
2022-09-05T04:36:38.618Z,61.84
2022-09-05T04:38:38.687Z,61.84
2022-09-05T04:39:38.767Z,61.94
2022-09-05T04:40:38.759Z,61.94
2022-09-05T04:41:40.179Z,62.04
2022-09-05T04:42:38.821Z,61.94
2022-09-05T04:43:38.859Z,61.94
2022-09-05T04:44:38.886Z,61.84
2022-09-05T04:45:38.962Z,62.13
2022-09-05T04:46:48.946Z,62.13
2022-09-05T04:47:39.008Z,62.32
2022-09-05T04:48:39.283Z,62.13
2022-09-05T04:49:39.361Z,62.13
2022-09-05T04:50:39.093Z,62.23
2022-09-05T04:51:39.136Z,62.32
2022-09-05T04:52:39.161Z,62.32
2022-09-05T04:53:39.198Z,62.42
2022-09-05T04:55:39.270Z,62.04
2022-09-05T04:56:39.600Z,62.52
2022-09-05T04:57:39.330Z,62.42
2022-09-05T05:06:00.409Z,62.62
2022-09-05T05:06:06.083Z,62.62
2022-09-05T05:06:12.049Z,62.52
2022-09-05T05:06:16.274Z,62.62
2022-09-05T05:06:16.466Z,62.62
2022-09-05T05:06:45.919Z,62.32
2022-09-05T05:07:39.760Z,62.52
2022-09-05T05:08:39.900Z,62.52
2022-09-05T05:09:39.742Z,62.52
2022-09-05T05:11:11.545Z,62.71
2022-09-05T05:17:25.373Z,62.62
2022-09-05T05:17:53.638Z,62.62
2022-09-05T05:17:56.453Z,62.52
2022-09-05T05:18:06.723Z,62.13
2022-09-05T05:18:08.138Z,62.62
2022-09-05T05:18:15.635Z,62.52
2022-09-05T05:18:16.112Z,62.52
2022-09-05T05:18:55.036Z,62.62
2022-09-05T05:19:40.164Z,62.32
2022-09-05T05:20:43.742Z,62.32
2022-09-05T05:21:40.164Z,62.32
2022-09-05T05:22:40.185Z,62.32
2022-09-05T05:23:40.220Z,62.32
2022-09-05T05:24:40.502Z,62.32
2022-09-05T05:25:40.293Z,62.04
2022-09-05T05:26:40.333Z,62.13
2022-09-05T05:27:40.361Z,61.94
2022-09-05T05:28:40.395Z,61.94
2022-09-05T05:29:40.430Z,61.94
2022-09-05T05:30:40.762Z,61.84
2022-09-05T05:31:40.620Z,61.74
2022-09-05T05:32:45.516Z,62.04
2022-09-05T05:34:40.598Z,62.04
2022-09-05T05:35:48.031Z,61.94
2022-09-05T05:36:40.678Z,62.04
2022-09-05T05:37:40.701Z,61.84
2022-09-05T05:38:40.734Z,61.84
2022-09-05T05:39:40.870Z,62.13
2022-09-05T05:40:50.525Z,62.04
2022-09-05T05:41:40.842Z,62.04
2022-09-05T05:42:40.870Z,62.13
2022-09-05T05:43:46.102Z,62.42
2022-09-05T05:44:41.807Z,62.04
2022-09-05T05:45:41.039Z,62.04
2022-09-05T05:46:41.009Z,62.13
2022-09-05T05:47:41.044Z,62.13
2022-09-05T05:48:42.248Z,62.04
2022-09-05T05:49:41.109Z,62.04
2022-09-05T05:52:02.370Z,62.13
2022-09-05T05:53:43.443Z,62.04
2022-09-05T05:54:41.282Z,62.04
2022-09-05T05:55:52.014Z,62.04
2022-09-05T05:56:41.457Z,62.13
2022-09-05T05:57:41.397Z,61.94
2022-09-05T05:58:41.524Z,62.04
2022-09-05T05:59:41.457Z,62.13
2022-09-05T06:00:41.485Z,62.23
2022-09-05T06:01:41.628Z,62.13
2022-09-05T06:03:42.036Z,61.84
2022-09-05T06:05:41.659Z,61.74
2022-09-05T06:06:41.694Z,61.94
2022-09-05T06:08:33.884Z,62.13
2022-09-05T06:13:40.353Z,62.13
2022-09-05T06:14:48.955Z,61.74
2022-09-05T06:14:55.184Z,61.65
2022-09-05T06:15:01.625Z,61.74
2022-09-05T06:15:01.626Z,61.84
2022-09-05T06:15:04.153Z,61.65
2022-09-05T06:15:09.311Z,61.84
2022-09-05T06:15:42.001Z,61.55
2022-09-05T06:16:42.069Z,61.55
2022-09-05T06:17:42.063Z,61.35
2022-09-05T06:18:42.517Z,61.74
2022-09-05T06:22:07.007Z,61.55
2022-09-05T06:22:08.553Z,60.97
2022-09-05T06:22:11.590Z,61.65
2022-09-05T06:22:42.670Z,60.97
2022-09-05T06:24:42.305Z,61.25
2022-09-05T06:25:42.344Z,61.35
2022-09-05T06:26:42.644Z,61.16
2022-09-05T06:28:42.540Z,61.25
2022-09-05T06:29:46.933Z,61.25
2022-09-05T06:30:42.616Z,61.25
2022-09-05T06:31:42.581Z,61.25
2022-09-05T06:32:46.797Z,61.55
2022-09-05T06:33:42.613Z,61.07
2022-09-05T06:34:42.650Z,61.25
2022-09-05T06:35:42.982Z,61.25
2022-09-05T06:36:42.720Z,61.16
2022-09-05T06:37:42.747Z,61.35
2022-09-05T06:38:42.784Z,61.45
2022-09-05T06:39:45.145Z,61.35
2022-09-05T06:40:42.852Z,61.25
2022-09-05T06:41:43.188Z,61.25
2022-09-05T06:42:44.137Z,60.97
2022-09-05T06:43:42.954Z,61.25
2022-09-05T06:44:42.991Z,61.25
2022-09-05T06:45:43.073Z,61.25
2022-09-05T06:47:21.999Z,61.07
2022-09-05T06:47:43.160Z,60.68
2022-09-05T06:49:46.024Z,60.77
2022-09-05T06:51:08.106Z,60.68
2022-09-05T06:51:44.190Z,60.77
2022-09-05T06:52:44.050Z,60.68
2022-09-05T06:53:43.605Z,60.77
2022-09-05T06:54:54.536Z,60.58
2022-09-05T06:55:43.371Z,60.58
2022-09-05T06:56:43.405Z,60.77
2022-09-05T06:57:44.025Z,60.77
2022-09-05T06:58:43.475Z,60.58
2022-09-05T06:59:43.517Z,60.48
2022-09-05T07:00:43.813Z,60.48
2022-09-05T07:01:59.560Z,60.68
2022-09-05T07:02:59.823Z,60.68
2022-09-05T07:03:43.647Z,60.68
2022-09-05T07:05:37.797Z,60.58
2022-09-05T07:05:45.268Z,60.87
2022-09-05T07:07:00.996Z,60.58
2022-09-05T07:07:45.991Z,60.87
2022-09-05T07:08:43.812Z,60.68
2022-09-05T07:09:43.849Z,60.58
2022-09-05T07:10:43.884Z,60.71
2022-09-05T07:11:43.926Z,60.77
2022-09-05T07:12:43.958Z,60.77
2022-09-05T07:13:44.837Z,60.87
2022-09-05T07:14:44.118Z,60.77
2022-09-05T07:15:44.054Z,60.71
2022-09-05T07:16:44.249Z,60.58
2022-09-05T07:18:06.606Z,60.48
2022-09-05T07:18:44.160Z,60.22
2022-09-05T07:19:44.445Z,60.61
2022-09-05T07:21:15.792Z,60.38
2022-09-05T07:21:44.424Z,60.38
2022-09-05T07:22:48.590Z,60.58
2022-09-05T07:24:06.564Z,60.41
2022-09-05T07:24:54.701Z,60.48
2022-09-05T07:25:44.402Z,60.61
2022-09-05T07:26:53.957Z,60.41
2022-09-05T07:28:22.246Z,60.77
2022-09-05T07:28:44.498Z,60.28
2022-09-05T07:29:53.526Z,60.31
2022-09-05T07:30:44.569Z,60.22
2022-09-05T07:31:44.667Z,60.48
2022-09-05T07:32:44.638Z,60.22
2022-09-05T07:33:44.675Z,60.22
2022-09-05T07:34:44.706Z,60.22
2022-09-05T07:35:44.743Z,60.22
2022-09-05T07:36:44.775Z,60.31
2022-09-05T07:37:44.815Z,60.31
2022-09-05T07:38:54.914Z,60.22
2022-09-05T07:40:44.916Z,60.31
2022-09-05T07:41:44.949Z,60.31
2022-09-05T07:42:45.018Z,60.31
2022-09-05T07:43:45.321Z,60.22
2022-09-05T07:44:45.067Z,60.12
2022-09-05T07:45:52.169Z,59.83
2022-09-05T07:46:45.125Z,59.83
2022-09-05T07:47:45.166Z,59.92
2022-09-05T07:48:45.199Z,59.92
2022-09-05T07:51:03.435Z,59.83
2022-09-05T07:56:19.200Z,59.64
2022-09-05T07:56:32.091Z,59.92
2022-09-05T07:57:01.850Z,59.74
2022-09-05T07:57:02.366Z,59.54
2022-09-05T07:57:03.719Z,59.83
2022-09-05T07:57:04.126Z,59.83
2022-09-05T07:57:08.067Z,59.92
2022-09-05T07:57:52.089Z,59.83
2022-09-05T07:58:45.564Z,59.83
2022-09-05T08:00:45.679Z,59.92
2022-09-05T08:01:45.648Z,59.83
2022-09-05T08:02:47.620Z,59.83
2022-09-05T08:03:46.020Z,60.02
2022-09-05T08:04:45.789Z,60.02
2022-09-05T08:05:45.781Z,60.02
2022-09-05T22:37:09.161Z,56.77
2022-09-05T22:38:11.869Z,56.20
2022-09-05T22:39:09.244Z,56.29
2022-09-05T22:40:09.300Z,56.59
2022-09-05T22:41:09.395Z,56.00
2022-09-05T22:42:10.714Z,55.71
2022-09-05T22:43:09.660Z,55.90
2022-09-05T22:44:09.395Z,56.29
2022-09-05T22:45:09.426Z,56.10
2022-09-05T22:47:09.493Z,56.10
2022-09-05T22:49:09.665Z,55.80
2022-09-05T22:50:09.843Z,55.80
2022-09-05T22:51:09.628Z,55.90
2022-09-05T22:52:09.968Z,55.80
2022-09-05T22:53:09.713Z,55.90
2022-09-05T22:54:09.731Z,55.90
2022-09-05T22:55:09.763Z,55.90
2022-09-05T22:56:09.805Z,55.90
2022-09-05T22:57:10.082Z,55.71
2022-09-05T22:58:09.866Z,56.00
2022-09-05T22:59:09.911Z,56.00
2022-09-05T23:00:09.939Z,55.90
2022-09-05T23:01:10.062Z,55.80
2022-09-05T23:02:10.008Z,55.90
2022-09-05T23:03:10.045Z,55.80
2022-09-05T23:04:10.468Z,55.71
2022-09-05T23:05:10.113Z,55.61
2022-09-05T23:06:10.152Z,55.61
2022-09-05T23:07:10.188Z,55.71
2022-09-05T23:08:10.220Z,55.61
2022-09-05T23:09:10.249Z,55.71
2022-09-05T23:10:10.582Z,55.51
2022-09-05T23:11:10.325Z,55.61
2022-09-05T23:12:10.357Z,55.71
2022-09-05T23:13:10.388Z,55.22
2022-09-05T23:14:10.420Z,55.22
2022-09-05T23:15:10.483Z,55.22
2022-09-05T23:16:10.884Z,55.22
2022-09-05T23:17:10.527Z,55.61
2022-09-05T23:18:10.572Z,55.71
2022-09-05T23:19:10.599Z,55.61
2022-09-05T23:20:10.863Z,55.61
2022-09-05T23:21:10.775Z,55.61
2022-09-05T23:24:11.074Z,55.71
2022-09-05T23:25:10.907Z,55.61
2022-09-05T23:26:10.841Z,55.61
2022-09-05T23:27:10.891Z,55.51
2022-09-05T23:28:10.917Z,55.41
2022-09-05T23:29:11.247Z,55.80
2022-09-05T23:30:10.984Z,55.71
2022-09-05T23:31:11.337Z,55.71
2022-09-05T23:32:11.056Z,55.61
2022-09-05T23:33:11.092Z,55.32
2022-09-05T23:34:11.220Z,55.32
2022-09-05T23:36:11.296Z,55.32
2022-09-05T23:37:11.532Z,55.22
2022-09-05T23:38:11.263Z,55.13
2022-09-05T23:39:11.298Z,55.51
2022-09-05T23:40:11.437Z,55.03
2022-09-05T23:41:11.373Z,55.03
2022-09-05T23:42:11.511Z,54.93
2022-09-05T23:43:11.440Z,54.93
2022-09-05T23:44:11.777Z,55.03
2022-09-05T23:45:11.511Z,55.03
2022-09-05T23:46:11.632Z,55.13
2022-09-05T23:47:11.597Z,54.83
2022-09-05T23:49:11.648Z,54.93
2022-09-05T23:50:11.690Z,54.83
2022-09-05T23:51:12.031Z,55.13
2022-09-05T23:52:11.750Z,55.13
2022-09-05T23:53:11.790Z,55.13
2022-09-05T23:54:11.833Z,55.03
2022-09-05T23:55:11.866Z,55.03
2022-09-05T23:56:11.898Z,55.13
2022-09-05T23:57:11.931Z,54.93
2022-09-05T23:58:12.217Z,54.93
2022-09-05T23:59:12.003Z,54.93
